Time;durP1;ratioP1;P1;durP2;ratioP2;P2;SDS_P1;SDS_P2;PMS_P1;PMS_P2;Temp;Humidity;BMP_temperature;BMP_pressure;BME280_temperature;BME280_humidity;BME280_pressure;Samples;Min_cycle;Max_cycle;Signal;HPM_P1;HPM_P2
2021/11/13 00:00:39;;;;;;;23.47;5.37;;;;;;;;;;5002278;28;20042;-69
2021/11/13 00:03:07;;;;;;;13.93;3.97;;;;;;;;;;5007304;28;20569;-69
2021/11/13 00:05:34;;;;;;;17.63;3.67;;;;;;;;;;5001377;28;20129;-69
2021/11/13 00:08:02;;;;;;;20.83;4.00;;;;;;;;;;5006557;28;20077;-70
2021/11/13 00:10:29;;;;;;;15.82;4.60;;;;;;;;;;5000580;28;20066;-69
2021/11/13 00:12:56;;;;;;;14.05;3.75;;;;;;;;;;5003179;28;20090;-69
2021/11/13 00:15:23;;;;;;;20.83;4.03;;;;;;;;;;5004438;28;20572;-69
2021/11/13 00:17:50;;;;;;;24.30;4.63;;;;;;;;;;5001184;28;20141;-69
2021/11/13 00:20:17;;;;;;;10.57;3.40;;;;;;;;;;4997778;28;20154;-69
2021/11/13 00:22:44;;;;;;;26.77;4.35;;;;;;;;;;5003105;28;20532;-69
2021/11/13 00:25:11;;;;;;;16.77;3.90;;;;;;;;;;5000482;28;20292;-69
2021/11/13 00:27:38;;;;;;;17.02;4.25;;;;;;;;;;5000505;28;20489;-70
2021/11/13 00:30:05;;;;;;;19.07;3.80;;;;;;;;;;5002983;28;20150;-69
2021/11/13 00:32:32;;;;;;;20.02;3.83;;;;;;;;;;4997148;28;20329;-69
2021/11/13 00:34:58;;;;;;;14.17;3.30;;;;;;;;;;4995639;28;20474;-69
2021/11/13 00:37:25;;;;;;;12.37;3.17;;;;;;;;;;4996205;28;20359;-69
2021/11/13 00:39:51;;;;;;;20.83;4.60;;;;;;;;;;5001456;28;20140;-69
2021/11/13 00:42:18;;;;;;;14.10;3.67;;;;;;;;;;4999717;28;20089;-69
2021/11/13 00:44:45;;;;;;;16.48;4.20;;;;;;;;;;5000475;28;20146;-69
2021/11/13 00:47:11;;;;;;;14.43;3.53;;;;;;;;;;5004480;28;20479;-70
2021/11/13 00:49:38;;;;;;;17.23;3.33;;;;;;;;;;5004733;28;20406;-69
2021/11/13 00:52:05;;;;;;;18.50;3.97;;;;;;;;;;4999225;28;20080;-69
2021/11/13 00:54:33;;;;;;;12.60;3.50;;;;;;;;;;5001253;28;20104;-69
2021/11/13 00:57:00;;;;;;;20.92;3.75;;;;;;;;;;5003680;28;20050;-69
2021/11/13 00:59:27;;;;;;;20.83;4.03;;;;;;;;;;5007275;28;20073;-69
2021/11/13 01:01:54;;;;;;;15.15;4.30;;;;;;;;;;5002634;28;20133;-69
2021/11/13 01:04:20;;;;;;;14.88;4.07;;;;;;;;;;5006323;28;20077;-69
2021/11/13 01:06:48;;;;;;;7.35;3.10;;;;;;;;;;5001257;28;20145;-69
2021/11/13 01:09:14;;;;;;;12.10;2.83;;;;;;;;;;5000361;28;20101;-70
2021/11/13 01:11:41;;;;;;;15.55;2.92;;;;;;;;;;5004648;28;20054;-69
2021/11/13 01:14:07;;;;;;;21.93;3.40;;;;;;;;;;5001754;28;20077;-69
2021/11/13 01:16:34;;;;;;;10.13;2.85;;;;;;;;;;5002895;28;20809;-69
2021/11/13 01:19:01;;;;;;;17.53;3.70;;;;;;;;;;5003056;28;20145;-69
2021/11/13 01:21:27;;;;;;;14.52;3.42;;;;;;;;;;5005004;28;20317;-69
2021/11/13 01:23:54;;;;;;;12.98;2.97;;;;;;;;;;5001715;28;20069;-69
2021/11/13 01:26:21;;;;;;;11.90;2.83;;;;;;;;;;4998217;28;20291;-69
2021/11/13 01:28:48;;;;;;;10.88;3.05;;;;;;;;;;4998262;28;20424;-69
2021/11/13 01:31:15;;;;;;;7.90;2.43;;;;;;;;;;5007304;28;20146;-69
2021/11/13 01:33:45;;;;;;;14.88;2.50;;;;;;;;;;5005364;28;20209;-69
2021/11/13 01:36:12;;;;;;;16.52;3.35;;;;;;;;;;5006117;28;20081;-69
2021/11/13 01:38:39;;;;;;;12.35;3.33;;;;;;;;;;5007283;28;20136;-69
2021/11/13 01:41:06;;;;;;;11.05;3.17;;;;;;;;;;5004654;28;20081;-69
2021/11/13 01:43:35;;;;;;;18.05;3.65;;;;;;;;;;5008160;28;20138;-69
2021/11/13 01:46:02;;;;;;;13.10;3.55;;;;;;;;;;5002264;28;20575;-69
2021/11/13 01:48:29;;;;;;;;;;;;;;;;;;4998925;28;20505;-69
2021/11/13 01:50:56;;;;;;;9.60;3.08;;;;;;;;;;5000767;28;20017;-69
2021/11/13 01:53:23;;;;;;;11.80;3.30;;;;;;;;;;5001912;28;20528;-69
2021/11/13 01:55:50;;;;;;;10.60;3.22;;;;;;;;;;5002472;28;20573;-70
2021/11/13 01:58:18;;;;;;;11.73;2.70;;;;;;;;;;5006470;28;20057;-69
2021/11/13 02:00:46;;;;;;;10.77;2.67;;;;;;;;;;4993139;28;20480;-69
2021/11/13 02:03:13;;;;;;;16.27;3.45;;;;;;;;;;5006152;28;20076;-69
2021/11/13 02:05:40;;;;;;;14.48;3.35;;;;;;;;;;4999360;28;22228;-70
2021/11/13 02:08:07;;;;;;;15.32;3.03;;;;;;;;;;5002802;28;20137;-69
2021/11/13 02:10:34;;;;;;;8.57;1.92;;;;;;;;;;5001497;28;20081;-69
2021/11/13 02:13:00;;;;;;;11.15;2.85;;;;;;;;;;5001189;28;20517;-69
2021/11/13 02:15:27;;;;;;;14.40;2.58;;;;;;;;;;4998716;28;20124;-69
2021/11/13 02:17:55;;;;;;;7.17;1.87;;;;;;;;;;5004046;28;20133;-69
2021/11/13 02:20:25;;;;;;;11.55;3.10;;;;;;;;;;4991934;28;20335;-69
2021/11/13 02:22:52;;;;;;;9.77;3.05;;;;;;;;;;4999801;28;20442;-69
2021/11/13 02:25:20;;;;;;;13.90;3.55;;;;;;;;;;5003039;28;20132;-69
2021/11/13 02:27:47;;;;;;;16.58;3.67;;;;;;;;;;5000015;28;21285;-69
2021/11/13 02:30:14;;;;;;;13.02;3.85;;;;;;;;;;4994739;28;20054;-69
2021/11/13 02:32:41;;;;;;;15.68;3.28;;;;;;;;;;5001747;28;20077;-69
2021/11/13 02:35:09;;;;;;;11.53;3.37;;;;;;;;;;4999222;28;20137;-69
2021/11/13 02:37:36;;;;;;;7.68;3.40;;;;;;;;;;5001054;28;20144;-69
2021/11/13 02:40:04;;;;;;;10.40;2.88;;;;;;;;;;4989875;28;20085;-69
2021/11/13 02:42:31;;;;;;;8.73;3.20;;;;;;;;;;5000722;28;20526;-69
2021/11/13 02:44:58;;;;;;;16.25;3.78;;;;;;;;;;4998051;28;20129;-69
2021/11/13 02:47:26;;;;;;;9.82;3.53;;;;;;;;;;4998298;28;20076;-69
2021/11/13 02:49:53;;;;;;;13.00;3.80;;;;;;;;;;4998780;28;20145;-69
2021/11/13 02:52:19;;;;;;;13.25;3.17;;;;;;;;;;5006364;28;20561;-69
2021/11/13 02:54:47;;;;;;;9.23;2.67;;;;;;;;;;5001937;28;20054;-70
2021/11/13 02:57:14;;;;;;;9.98;3.17;;;;;;;;;;4998894;28;20046;-69
2021/11/13 02:59:42;;;;;;;8.25;3.10;;;;;;;;;;5004026;28;20088;-69
2021/11/13 03:02:08;;;;;;;10.13;3.10;;;;;;;;;;5005175;28;20818;-69
2021/11/13 03:04:36;;;;;;;7.88;2.67;;;;;;;;;;5004286;28;20145;-69
2021/11/13 03:07:03;;;;;;;8.93;3.58;;;;;;;;;;4996425;28;20073;-69
2021/11/13 03:09:29;;;;;;;9.25;2.72;;;;;;;;;;4991310;28;20077;-69
2021/11/13 03:11:56;;;;;;;10.65;3.17;;;;;;;;;;5005879;28;20560;-69
2021/11/13 03:14:22;;;;;;;9.23;3.03;;;;;;;;;;5007528;28;20141;-69
2021/11/13 03:16:48;;;;;;;11.77;3.88;;;;;;;;;;5004549;28;20502;-69
2021/11/13 03:19:15;;;;;;;12.90;3.30;;;;;;;;;;5003778;28;20154;-69
2021/11/13 03:21:42;;;;;;;12.63;3.80;;;;;;;;;;5003891;28;20374;-69
2021/11/13 03:24:09;;;;;;;13.98;3.97;;;;;;;;;;5007596;28;20457;-69
2021/11/13 03:26:38;;;;;;;8.60;3.47;;;;;;;;;;5001594;28;20050;-69
2021/11/13 03:29:09;;;;;;;10.63;4.25;;;;;;;;;;4994273;28;20101;-69
2021/11/13 03:31:36;;;;;;;16.52;3.78;;;;;;;;;;4974863;28;20079;-69
2021/11/13 03:34:03;;;;;;;12.70;4.85;;;;;;;;;;4978751;28;20082;-69
2021/11/13 03:36:30;;;;;;;14.18;3.92;;;;;;;;;;4983514;28;20081;-69
2021/11/13 03:38:56;;;;;;;13.98;4.13;;;;;;;;;;4981427;28;20133;-69
2021/11/13 03:41:23;;;;;;;15.23;4.00;;;;;;;;;;4981575;28;20463;-69
2021/11/13 03:43:50;;;;;;;14.85;3.33;;;;;;;;;;4983472;28;20106;-69
2021/11/13 03:46:17;;;;;;;14.40;4.40;;;;;;;;;;4983515;28;20085;-69
2021/11/13 03:48:47;;;;;;;14.30;4.00;;;;;;;;;;4984646;28;20384;-69
2021/11/13 03:51:14;;;;;;;14.02;4.43;;;;;;;;;;4979616;28;20047;-69
2021/11/13 03:53:40;;;;;;;10.32;3.53;;;;;;;;;;4981977;28;20441;-69
2021/11/13 03:56:07;;;;;;;10.75;3.83;;;;;;;;;;4977832;28;20137;-69
2021/11/13 03:58:33;;;;;;;11.85;3.75;;;;;;;;;;4985348;28;20177;-69
2021/11/13 04:01:00;;;;;;;7.80;2.78;;;;;;;;;;4982939;28;20078;-70
2021/11/13 04:03:27;;;;;;;11.00;3.25;;;;;;;;;;4981941;28;20054;-69
2021/11/13 04:05:53;;;;;;;11.20;2.90;;;;;;;;;;4978524;28;20081;-70
2021/11/13 04:08:19;;;;;;;15.85;4.95;;;;;;;;;;4982103;28;20137;-69
2021/11/13 04:10:46;;;;;;;8.83;3.20;;;;;;;;;;4984029;28;20141;-69
2021/11/13 04:13:13;;;;;;;12.03;3.40;;;;;;;;;;4988166;28;20081;-69
2021/11/13 04:15:39;;;;;;;12.70;3.65;;;;;;;;;;4981058;28;20510;-69
2021/11/13 04:18:06;;;;;;;12.83;4.07;;;;;;;;;;4985092;28;20050;-69
2021/11/13 04:20:33;;;;;;;14.57;3.88;;;;;;;;;;4986612;28;20348;-69
2021/11/13 04:23:00;;;;;;;21.87;4.83;;;;;;;;;;4979210;28;20491;-69
2021/11/13 04:25:27;;;;;;;15.75;3.95;;;;;;;;;;4976600;28;20380;-69
2021/11/13 04:27:53;;;;;;;20.70;4.35;;;;;;;;;;4980485;28;20096;-69
2021/11/13 04:30:20;;;;;;;17.73;4.33;;;;;;;;;;5003694;28;20100;-69
2021/11/13 04:32:48;;;;;;;10.05;3.22;;;;;;;;;;5006667;28;20336;-69
2021/11/13 04:35:23;;;;;;;10.30;3.45;;;;;;;;;;5002826;28;20077;-69
2021/11/13 04:37:52;;;;;;;7.28;3.40;;;;;;;;;;5006322;28;20680;-69
2021/11/13 04:40:19;;;;;;;12.10;3.55;;;;;;;;;;5002942;28;20141;-69
2021/11/13 04:42:46;;;;;;;14.95;3.75;;;;;;;;;;5007572;28;20100;-69
2021/11/13 04:45:13;;;;;;;12.37;3.67;;;;;;;;;;5001122;28;20129;-69
2021/11/13 04:47:39;;;;;;;10.63;4.03;;;;;;;;;;4998964;28;20377;-69
2021/11/13 04:50:07;;;;;;;15.07;4.10;;;;;;;;;;4996707;28;20057;-69
2021/11/13 04:52:34;;;;;;;13.43;3.40;;;;;;;;;;5004595;28;20128;-69
2021/11/13 04:55:00;;;;;;;10.40;4.05;;;;;;;;;;5008480;28;20078;-69
2021/11/13 04:57:27;;;;;;;14.38;3.80;;;;;;;;;;5001582;28;20473;-69
2021/11/13 04:59:53;;;;;;;14.20;4.00;;;;;;;;;;5002700;28;20058;-69
2021/11/13 05:02:20;;;;;;;12.20;3.95;;;;;;;;;;5001098;28;20570;-69
2021/11/13 05:04:46;;;;;;;6.70;3.40;;;;;;;;;;5005635;28;20082;-69
2021/11/13 05:07:13;;;;;;;16.48;3.70;;;;;;;;;;5006259;28;20046;-69
2021/11/13 05:09:39;;;;;;;13.70;3.63;;;;;;;;;;5005202;28;20120;-69
2021/11/13 05:12:06;;;;;;;9.57;3.58;;;;;;;;;;5002110;28;20489;-69
2021/11/13 05:14:33;;;;;;;15.77;3.72;;;;;;;;;;5010074;28;20052;-69
2021/11/13 05:16:59;;;;;;;9.52;3.28;;;;;;;;;;5002511;28;20192;-69
2021/11/13 05:19:26;;;;;;;9.93;3.55;;;;;;;;;;4999947;28;20129;-69
2021/11/13 05:21:52;;;;;;;8.30;3.20;;;;;;;;;;5002807;28;20179;-69
2021/11/13 05:24:19;;;;;;;12.68;3.53;;;;;;;;;;5002005;28;20074;-69
2021/11/13 05:26:45;;;;;;;6.82;3.38;;;;;;;;;;5002314;28;20046;-69
2021/11/13 05:29:12;;;;;;;9.02;3.67;;;;;;;;;;5001996;28;20101;-69
2021/11/13 05:31:38;;;;;;;9.75;3.30;;;;;;;;;;5003353;28;20042;-69
2021/11/13 05:34:05;;;;;;;7.25;3.90;;;;;;;;;;5005106;28;20144;-69
2021/11/13 05:36:31;;;;;;;12.40;3.40;;;;;;;;;;5007984;28;20129;-69
2021/11/13 05:38:58;;;;;;;8.60;3.05;;;;;;;;;;5003092;28;20086;-69
2021/11/13 05:41:24;;;;;;;12.02;3.53;;;;;;;;;;5000784;28;20053;-69
2021/11/13 05:43:57;;;;;;;9.13;3.58;;;;;;;;;;4999886;28;20480;-69
2021/11/13 05:46:24;;;;;;;7.70;3.38;;;;;;;;;;5001672;28;20505;-69
2021/11/13 05:48:51;;;;;;;7.85;3.40;;;;;;;;;;5000664;28;20070;-69
2021/11/13 05:51:18;;;;;;;13.75;3.65;;;;;;;;;;5006314;28;20137;-69
2021/11/13 05:53:44;;;;;;;9.45;3.47;;;;;;;;;;5004510;28;20100;-69
2021/11/13 05:56:11;;;;;;;10.80;4.00;;;;;;;;;;5009518;28;20127;-69
2021/11/13 05:58:56;;;;;;;12.25;3.15;;;;;;;;;;5003164;28;20466;-69
2021/11/13 06:01:23;;;;;;;8.23;4.10;;;;;;;;;;5001303;28;20120;-69
2021/11/13 06:03:49;;;;;;;10.80;3.67;;;;;;;;;;5003112;28;20331;-69
2021/11/13 06:06:16;;;;;;;9.07;3.38;;;;;;;;;;4996977;28;20093;-69
2021/11/13 06:08:42;;;;;;;10.85;3.22;;;;;;;;;;4998047;28;20077;-69
2021/11/13 06:11:09;;;;;;;15.25;3.60;;;;;;;;;;5003592;28;20442;-69
2021/11/13 06:13:36;;;;;;;10.20;3.65;;;;;;;;;;5006878;28;20136;-69
2021/11/13 06:16:03;;;;;;;10.32;3.30;;;;;;;;;;5006240;28;20119;-69
2021/11/13 06:18:33;;;;;;;5.97;2.97;;;;;;;;;;5002471;28;20092;-69
2021/11/13 06:20:59;;;;;;;6.07;3.00;;;;;;;;;;5003350;28;20081;-69
2021/11/13 06:23:26;;;;;;;8.00;2.95;;;;;;;;;;5005041;28;20132;-69
2021/11/13 06:25:52;;;;;;;6.45;3.20;;;;;;;;;;5000939;28;20137;-69
2021/11/13 06:28:18;;;;;;;19.08;4.30;;;;;;;;;;4999276;28;20148;-68
2021/11/13 06:30:45;;;;;;;12.93;3.70;;;;;;;;;;5001473;28;20089;-68
2021/11/13 06:33:11;;;;;;;14.65;3.50;;;;;;;;;;4996546;28;20132;-69
2021/11/13 06:35:38;;;;;;;6.82;2.75;;;;;;;;;;5003800;28;20077;-69
2021/11/13 06:38:04;;;;;;;9.80;3.20;;;;;;;;;;5002875;28;20081;-68
2021/11/13 06:40:31;;;;;;;13.43;3.75;;;;;;;;;;4998872;28;20089;-68
2021/11/13 06:42:57;;;;;;;9.77;3.53;;;;;;;;;;5007319;28;20074;-68
2021/11/13 06:45:24;;;;;;;12.60;3.63;;;;;;;;;;5005432;28;20088;-68
2021/11/13 06:47:50;;;;;;;12.25;3.55;;;;;;;;;;4999852;28;20129;-69
2021/11/13 06:50:17;;;;;;;11.18;3.97;;;;;;;;;;5001551;28;20128;-68
2021/11/13 06:52:44;;;;;;;16.83;4.45;;;;;;;;;;4995675;28;20132;-68
2021/11/13 06:55:11;;;;;;;8.98;3.28;;;;;;;;;;5000451;28;20138;-68
2021/11/13 06:57:38;;;;;;;12.75;3.80;;;;;;;;;;5001180;28;20073;-69
2021/11/13 07:00:06;;;;;;;11.73;3.20;;;;;;;;;;5000492;28;20288;-68
2021/11/13 07:02:33;;;;;;;9.40;3.58;;;;;;;;;;5002867;28;20138;-68
2021/11/13 07:04:59;;;;;;;11.75;4.20;;;;;;;;;;5003081;28;20108;-68
2021/11/13 07:07:26;;;;;;;8.05;3.03;;;;;;;;;;5002044;28;20133;-68
2021/11/13 07:09:53;;;;;;;12.82;3.35;;;;;;;;;;5004847;28;20089;-68
2021/11/13 07:12:19;;;;;;;10.07;4.03;;;;;;;;;;5001204;28;20157;-69
2021/11/13 07:14:46;;;;;;;8.27;2.67;;;;;;;;;;5007132;28;20082;-68
2021/11/13 07:17:12;;;;;;;10.93;3.83;;;;;;;;;;4995194;28;20157;-69
2021/11/13 07:19:40;;;;;;;9.32;3.80;;;;;;;;;;4999879;28;20137;-69
2021/11/13 07:22:07;;;;;;;10.38;3.33;;;;;;;;;;4999487;28;20133;-68
2021/11/13 07:24:34;;;;;;;11.90;3.92;;;;;;;;;;4995958;28;20136;-69
2021/11/13 07:27:00;;;;;;;11.65;3.85;;;;;;;;;;4995757;28;20129;-68
2021/11/13 07:29:29;;;;;;;8.57;3.10;;;;;;;;;;5000632;28;20137;-69
2021/11/13 07:31:55;;;;;;;11.02;3.90;;;;;;;;;;5007830;28;20084;-68
2021/11/13 07:34:22;;;;;;;11.20;3.90;;;;;;;;;;5005632;28;20092;-68
2021/11/13 07:36:49;;;;;;;12.27;3.95;;;;;;;;;;5000782;28;20105;-68
2021/11/13 07:39:16;;;;;;;13.13;4.07;;;;;;;;;;4999916;28;20473;-69
2021/11/13 07:41:42;;;;;;;9.68;3.72;;;;;;;;;;4999357;28;20078;-69
2021/11/13 07:44:09;;;;;;;13.13;3.58;;;;;;;;;;5000833;28;20085;-68
2021/11/13 07:46:36;;;;;;;14.85;4.10;;;;;;;;;;4999998;28;20498;-69
2021/11/13 07:49:03;;;;;;;15.38;3.97;;;;;;;;;;4997667;28;20141;-69
2021/11/13 07:51:30;;;;;;;13.65;4.00;;;;;;;;;;5006758;28;20145;-69
2021/11/13 07:53:57;;;;;;;13.57;4.05;;;;;;;;;;4997531;28;20081;-69
2021/11/13 07:56:23;;;;;;;11.57;3.22;;;;;;;;;;5000258;28;20133;-69
2021/11/13 07:58:50;;;;;;;9.88;3.80;;;;;;;;;;5004116;28;20146;-70
2021/11/13 08:01:16;;;;;;;14.07;3.78;;;;;;;;;;4999504;28;20525;-69
2021/11/13 08:03:43;;;;;;;9.13;3.10;;;;;;;;;;5006887;28;20360;-70
2021/11/13 08:06:09;;;;;;;14.13;3.50;;;;;;;;;;5002327;28;20141;-69
2021/11/13 08:08:36;;;;;;;6.53;3.33;;;;;;;;;;5004312;28;20130;-69
2021/11/13 08:11:02;;;;;;;13.90;4.70;;;;;;;;;;5005208;28;20517;-69
2021/11/13 08:13:29;;;;;;;11.87;4.10;;;;;;;;;;5001483;28;20197;-69
2021/11/13 08:15:55;;;;;;;13.02;4.18;;;;;;;;;;5004027;28;20097;-70
2021/11/13 08:18:22;;;;;;;16.95;3.65;;;;;;;;;;5005924;28;20465;-70
2021/11/13 08:20:49;;;;;;;17.75;3.72;;;;;;;;;;5002797;28;20145;-70
2021/11/13 08:23:16;;;;;;;11.40;3.90;;;;;;;;;;5007583;28;20633;-70
2021/11/13 08:25:43;;;;;;;11.68;4.30;;;;;;;;;;5004901;28;20078;-70
2021/11/13 08:28:09;;;;;;;;;;;;;;;;;;5000150;28;20122;-70
2021/11/13 08:30:39;;;;;;;12.85;3.50;;;;;;;;;;4984563;28;19976;-70
2021/11/13 08:33:07;;;;;;;12.35;4.10;;;;;;;;;;4986704;28;20090;-70
2021/11/13 08:35:34;;;;;;;10.52;3.30;;;;;;;;;;4979552;28;20137;-70
2021/11/13 08:38:01;;;;;;;7.60;3.25;;;;;;;;;;4986161;28;20086;-71
2021/11/13 08:40:28;;;;;;;18.63;4.23;;;;;;;;;;4986086;28;20458;-71
2021/11/13 08:42:54;;;;;;;8.23;3.15;;;;;;;;;;4984738;28;20313;-70
2021/11/13 08:45:21;;;;;;;10.00;3.42;;;;;;;;;;4982700;28;20144;-70
2021/11/13 08:47:47;;;;;;;17.13;3.05;;;;;;;;;;4981709;28;20468;-70
2021/11/13 08:50:18;;;;;;;11.98;3.20;;;;;;;;;;4984090;28;20059;-71
2021/11/13 08:52:48;;;;;;;14.32;3.53;;;;;;;;;;4982620;28;20495;-70
2021/11/13 08:55:15;;;;;;;10.27;3.22;;;;;;;;;;4984366;28;20134;-70
2021/11/13 08:57:42;;;;;;;8.88;3.00;;;;;;;;;;4982389;28;20082;-70
2021/11/13 09:00:09;;;;;;;16.73;3.53;;;;;;;;;;4983839;28;20146;-70
2021/11/13 09:02:36;;;;;;;11.30;3.97;;;;;;;;;;4984376;28;21305;-70
2021/11/13 09:05:03;;;;;;;9.00;3.37;;;;;;;;;;4980684;28;20142;-71
2021/11/13 09:07:30;;;;;;;10.68;3.30;;;;;;;;;;4976445;28;20047;-70
2021/11/13 09:09:56;;;;;;;12.70;3.95;;;;;;;;;;4981611;28;20093;-70
2021/11/13 09:12:26;;;;;;;10.15;3.30;;;;;;;;;;4983555;28;20047;-70
2021/11/13 09:14:55;;;;;;;9.60;3.03;;;;;;;;;;4981527;28;20133;-70
2021/11/13 09:17:21;;;;;;;15.95;4.63;;;;;;;;;;4988519;28;20045;-70
2021/11/13 09:19:48;;;;;;;15.15;3.58;;;;;;;;;;4985559;28;20138;-70
2021/11/13 09:22:15;;;;;;;12.52;3.28;;;;;;;;;;4983088;28;20616;-70
2021/11/13 09:24:42;;;;;;;13.50;3.45;;;;;;;;;;4981192;28;20074;-70
2021/11/13 09:27:09;;;;;;;12.07;3.25;;;;;;;;;;4982979;28;20365;-70
2021/11/13 09:29:35;;;;;;;8.93;3.50;;;;;;;;;;4989859;28;20086;-70
2021/11/13 09:32:02;;;;;;;5.03;2.63;;;;;;;;;;4985435;28;20490;-70
2021/11/13 09:34:29;;;;;;;15.30;3.10;;;;;;;;;;4984006;28;20141;-70
2021/11/13 09:36:55;;;;;;;12.02;3.65;;;;;;;;;;4978769;28;20109;-70
2021/11/13 09:39:22;;;;;;;8.02;3.55;;;;;;;;;;4985080;28;20474;-70
2021/11/13 09:41:49;;;;;;;12.55;3.83;;;;;;;;;;4986189;28;20056;-70
2021/11/13 09:44:18;;;;;;;6.40;2.87;;;;;;;;;;4984268;28;20138;-70
2021/11/13 09:46:46;;;;;;;10.10;3.58;;;;;;;;;;4983906;28;20153;-70
2021/11/13 09:49:14;;;;;;;8.82;3.58;;;;;;;;;;4979193;28;20077;-70
2021/11/13 09:51:41;;;;;;;6.57;3.00;;;;;;;;;;4986067;28;20077;-70
2021/11/13 09:54:09;;;;;;;9.73;2.72;;;;;;;;;;4983476;28;20141;-70
2021/11/13 09:56:36;;;;;;;13.32;4.22;;;;;;;;;;4966632;28;20129;-70
2021/11/13 09:59:03;;;;;;;;;;;;;;;;;;4978594;28;20149;-70
2021/11/13 10:01:31;;;;;;;21.95;2.78;;;;;;;;;;4976198;28;19966;-70
2021/11/13 10:03:58;;;;;;;15.23;3.55;;;;;;;;;;4980713;28;20175;-70
2021/11/13 10:06:25;;;;;;;13.93;3.25;;;;;;;;;;4983430;28;20130;-70
2021/11/13 10:08:52;;;;;;;8.20;3.28;;;;;;;;;;4984494;28;20074;-70
2021/11/13 10:11:20;;;;;;;13.97;3.03;;;;;;;;;;4981628;28;20479;-70
2021/11/13 10:13:51;;;;;;;9.52;3.20;;;;;;;;;;4983932;28;20130;-70
2021/11/13 10:16:20;;;;;;;11.93;3.60;;;;;;;;;;4981255;28;20085;-70
2021/11/13 10:18:48;;;;;;;6.00;2.65;;;;;;;;;;4984161;28;20051;-70
2021/11/13 10:21:17;;;;;;;10.95;3.25;;;;;;;;;;4981164;28;20598;-70
2021/11/13 10:23:43;;;;;;;9.23;3.30;;;;;;;;;;4977162;28;20581;-71
2021/11/13 10:26:13;;;;;;;11.43;3.42;;;;;;;;;;4989526;28;20085;-70
2021/11/13 10:28:47;;;;;;;10.57;3.10;;;;;;;;;;4978958;28;20053;-70
2021/11/13 10:31:19;;;;;;;12.02;3.50;;;;;;;;;;4979670;28;20085;-70
2021/11/13 10:33:46;;;;;;;12.30;3.70;;;;;;;;;;4983666;28;20054;-70
2021/11/13 10:36:14;;;;;;;16.80;3.60;;;;;;;;;;4983295;28;20499;-70
2021/11/13 10:38:43;;;;;;;13.50;3.58;;;;;;;;;;4977564;28;20481;-70
2021/11/13 10:41:11;;;;;;;13.48;3.15;;;;;;;;;;4972898;28;20085;-70
2021/11/13 10:43:37;;;;;;;;;;;;;;;;;;4983259;28;20078;-70
2021/11/13 10:46:06;;;;;;;7.65;3.15;;;;;;;;;;4972599;28;20008;-70
2021/11/13 10:48:35;;;;;;;8.50;3.50;;;;;;;;;;4971563;28;20050;-70
2021/11/13 10:51:03;;;;;;;8.65;2.90;;;;;;;;;;4984282;28;20112;-70
2021/11/13 10:53:31;;;;;;;11.43;3.13;;;;;;;;;;4980696;28;20125;-70
2021/11/13 10:56:06;;;;;;;6.38;2.97;;;;;;;;;;4983028;28;20476;-70
2021/11/13 10:58:37;;;;;;;9.93;3.20;;;;;;;;;;4984621;28;20129;-70
2021/11/13 11:01:08;;;;;;;9.38;3.13;;;;;;;;;;4980719;28;21236;-70
2021/11/13 11:03:40;;;;;;;14.48;3.40;;;;;;;;;;4981904;28;20125;-70
2021/11/13 11:06:07;;;;;;;11.15;3.40;;;;;;;;;;4979427;28;20078;-70
2021/11/13 11:08:35;;;;;;;10.60;3.45;;;;;;;;;;4979800;28;20564;-70
2021/11/13 11:11:03;;;;;;;19.58;3.75;;;;;;;;;;4982362;28;20054;-70
2021/11/13 11:13:42;;;;;;;9.38;3.90;;;;;;;;;;4979881;28;20043;-70
2021/11/13 11:16:29;;;;;;;9.32;3.60;;;;;;;;;;4985340;28;20081;-70
2021/11/13 11:18:57;;;;;;;11.40;4.20;;;;;;;;;;4980546;28;20502;-70
2021/11/13 11:21:43;;;;;;;10.13;3.70;;;;;;;;;;4979730;28;20078;-70
2021/11/13 11:24:48;;;;;;;14.52;4.22;;;;;;;;;;4977664;28;20050;-70
2021/11/13 11:27:19;;;;;;;10.90;4.40;;;;;;;;;;4908028;29;20144;-70
2021/11/13 11:30:09;;;;;;;17.85;4.60;;;;;;;;;;4906817;29;20057;-70
2021/11/13 11:32:41;;;;;;;11.55;3.97;;;;;;;;;;4948897;28;20058;-70
2021/11/13 11:35:08;;;;;;;12.90;3.75;;;;;;;;;;4979674;28;20494;-70
2021/11/13 11:37:37;;;;;;;13.77;3.60;;;;;;;;;;4979583;28;20097;-70
2021/11/13 11:40:06;;;;;;;19.17;3.88;;;;;;;;;;4980172;28;20088;-70
2021/11/13 11:42:33;;;;;;;10.50;3.72;;;;;;;;;;4979950;28;20070;-70
2021/11/13 11:45:00;;;;;;;15.15;4.05;;;;;;;;;;4977689;28;20141;-70
2021/11/13 11:47:28;;;;;;;9.23;3.67;;;;;;;;;;4979857;28;20047;-70
2021/11/13 11:49:55;;;;;;;15.65;3.92;;;;;;;;;;4980201;28;20991;-70
2021/11/13 11:52:23;;;;;;;11.75;4.43;;;;;;;;;;4978803;28;20050;-70
2021/11/13 11:54:55;;;;;;;13.07;3.65;;;;;;;;;;4977258;28;20058;-70
2021/11/13 11:57:47;;;;;;;11.52;3.38;;;;;;;;;;4978113;28;20047;-70
2021/11/13 12:00:16;;;;;;;14.80;3.53;;;;;;;;;;4977306;28;20356;-70
2021/11/13 12:02:44;;;;;;;12.35;3.75;;;;;;;;;;4980154;28;20126;-70
2021/11/13 12:05:12;;;;;;;12.73;3.20;;;;;;;;;;4975117;28;20137;-70
2021/11/13 12:07:39;;;;;;;13.40;3.42;;;;;;;;;;4979414;28;20121;-70
2021/11/13 12:10:35;;;;;;;10.27;3.20;;;;;;;;;;4979113;28;20078;-70
2021/11/13 12:13:02;;;;;;;11.98;3.67;;;;;;;;;;4973288;28;20133;-71
2021/11/13 12:15:29;;;;;;;12.85;3.75;;;;;;;;;;4977675;28;20121;-71
2021/11/13 12:18:11;;;;;;;10.55;3.45;;;;;;;;;;4976942;28;20177;-70
2021/11/13 12:20:38;;;;;;;16.98;3.47;;;;;;;;;;4978669;28;20082;-70
2021/11/13 12:23:10;;;;;;;14.97;4.53;;;;;;;;;;4978878;28;20137;-70
2021/11/13 12:25:42;;;;;;;18.95;4.20;;;;;;;;;;4979610;28;20112;-70
2021/11/13 12:28:19;;;;;;;13.32;3.83;;;;;;;;;;4979907;28;20481;-70
2021/11/13 12:31:09;;;;;;;14.10;3.65;;;;;;;;;;4998295;28;20111;-70
2021/11/13 12:33:36;;;;;;;17.38;3.95;;;;;;;;;;4993801;28;20510;-70
2021/11/13 12:36:03;;;;;;;13.93;3.83;;;;;;;;;;4997972;28;20153;-70
2021/11/13 12:38:54;;;;;;;15.48;3.65;;;;;;;;;;4995903;28;20045;-70
2021/11/13 12:41:41;;;;;;;16.15;4.10;;;;;;;;;;4986392;28;20529;-70
2021/11/13 12:44:12;;;;;;;14.20;3.42;;;;;;;;;;4998271;28;20119;-70
2021/11/13 12:46:48;;;;;;;7.43;2.65;;;;;;;;;;4998409;28;20128;-70
2021/11/13 12:49:25;;;;;;;14.73;3.60;;;;;;;;;;4997700;28;20058;-70
2021/11/13 12:51:54;;;;;;;13.63;4.05;;;;;;;;;;5000523;28;20168;-70
2021/11/13 12:54:24;;;;;;;11.43;3.53;;;;;;;;;;4996950;28;20470;-70
2021/11/13 12:57:10;;;;;;;8.77;2.85;;;;;;;;;;5005055;28;20159;-70
2021/11/13 12:59:38;;;;;;;12.52;3.53;;;;;;;;;;5000368;28;20125;-70
2021/11/13 13:02:05;;;;;;;9.30;3.28;;;;;;;;;;5000849;28;20058;-71
2021/11/13 13:04:32;;;;;;;13.43;3.58;;;;;;;;;;4997629;28;20078;-70
2021/11/13 13:07:00;;;;;;;13.98;3.38;;;;;;;;;;5000233;28;20078;-70
2021/11/13 13:09:33;;;;;;;8.18;3.17;;;;;;;;;;4999990;28;20081;-70
2021/11/13 13:12:01;;;;;;;8.13;2.92;;;;;;;;;;5001720;28;21719;-70
2021/11/13 13:14:30;;;;;;;12.82;3.65;;;;;;;;;;5002923;28;20157;-70
2021/11/13 13:16:57;;;;;;;13.90;4.03;;;;;;;;;;4999990;28;20077;-70
2021/11/13 13:19:30;;;;;;;14.50;3.88;;;;;;;;;;5000050;28;20098;-70
2021/11/13 13:21:56;;;;;;;7.20;3.08;;;;;;;;;;4999234;28;20144;-70
2021/11/13 13:24:23;;;;;;;14.13;3.40;;;;;;;;;;4997614;28;20133;-70
2021/11/13 13:26:59;;;;;;;14.15;4.13;;;;;;;;;;4997605;28;20661;-70
2021/11/13 13:29:25;;;;;;;15.73;3.25;;;;;;;;;;4983340;28;20133;-70
2021/11/13 13:32:01;;;;;;;13.98;3.35;;;;;;;;;;4999450;28;20130;-70
2021/11/13 13:34:29;;;;;;;7.97;2.95;;;;;;;;;;5002723;28;20136;-70
2021/11/13 13:37:10;;;;;;;8.98;3.28;;;;;;;;;;5000354;28;20148;-70
2021/11/13 13:39:36;;;;;;;16.20;3.45;;;;;;;;;;4999585;28;20096;-70
2021/11/13 13:42:03;;;;;;;9.60;3.13;;;;;;;;;;4999926;28;20049;-71
2021/11/13 13:44:29;;;;;;;14.48;3.47;;;;;;;;;;5000997;28;21807;-70
2021/11/13 13:46:56;;;;;;;6.83;2.53;;;;;;;;;;4998699;28;20074;-70
2021/11/13 13:49:28;;;;;;;10.48;3.45;;;;;;;;;;5000770;28;20046;-70
2021/11/13 13:51:58;;;;;;;13.23;3.30;;;;;;;;;;5000423;28;20080;-70
2021/11/13 13:54:27;;;;;;;11.55;2.97;;;;;;;;;;4999985;28;20049;-70
2021/11/13 13:56:59;;;;;;;12.32;3.28;;;;;;;;;;5002039;28;20184;-70
2021/11/13 13:59:28;;;;;;;7.97;2.90;;;;;;;;;;5001473;28;20141;-70
2021/11/13 14:01:59;;;;;;;12.05;3.30;;;;;;;;;;5002977;28;20147;-70
2021/11/13 14:04:27;;;;;;;13.15;3.13;;;;;;;;;;5001161;28;20395;-70
2021/11/13 14:06:54;;;;;;;9.95;3.13;;;;;;;;;;5004507;28;20042;-70
2021/11/13 14:09:21;;;;;;;10.80;3.25;;;;;;;;;;5001707;28;20054;-70
2021/11/13 14:11:54;;;;;;;11.05;3.10;;;;;;;;;;5000147;28;20629;-70
2021/11/13 14:14:28;;;;;;;12.60;4.25;;;;;;;;;;5008329;28;20073;-70
2021/11/13 14:16:58;;;;;;;18.77;3.72;;;;;;;;;;5001736;28;20074;-70
2021/11/13 14:19:25;;;;;;;13.00;3.38;;;;;;;;;;5003806;28;20086;-70
2021/11/13 14:21:51;;;;;;;10.95;3.13;;;;;;;;;;5000442;28;20078;-70
2021/11/13 14:24:19;;;;;;;9.47;3.27;;;;;;;;;;5005950;28;20077;-70
2021/11/13 14:26:45;;;;;;;;;;;;;;;;;;5003529;28;20738;-70
2021/11/13 14:29:12;;;;;;;10.02;3.00;;;;;;;;;;4997833;28;19956;-70
2021/11/13 14:31:40;;;;;;;11.45;2.90;;;;;;;;;;4986079;28;20141;-70
2021/11/13 14:34:12;;;;;;;7.88;3.00;;;;;;;;;;4985012;28;20089;-70
2021/11/13 14:37:00;;;;;;;12.52;3.55;;;;;;;;;;4982370;28;20411;-70
2021/11/13 14:39:28;;;;;;;10.38;3.17;;;;;;;;;;4984405;28;20502;-70
2021/11/13 14:41:55;;;;;;;6.45;3.58;;;;;;;;;;4980717;28;20391;-70